Ashton, Illinois
Current Conditions -  °F | °C
As of 11:35 PM on Tuesday 21 Oct 2014 (Local Time) from KRPJ Reporting Station
Clear Clear  
Wind Chill: 35°   Ceiling: Unl
Heat Index: 35°   Visibility: 10mi
Dew Point: 33°   Wind: 0mph
Humidity: 94%   Direction: NA
Pressure: 30.28"   Gusts: NA
Location:  41.87°N, 89.22°W
Report Text: KRPJ 220435Z AUTO 00000KT 10SM CLR 02/01 A3028 RMK AO2 T00160008
Loading
Personal Weather Stations






























Interactive Weather Map
Tropical Storm Tracking
New forecast layout! Learn more

10-Day Weather Forecast

Advertisements
Track Severe Weather on mobile